Terminal Aerodrome Forecast
Issued by NWS Wilmington, OH

Home | Current Version | Previous Version | Text Only | Print | Product List | Glossary On
Versions: 1 2 3 4 5 6 7 8 9 10 11 12 13 14 15 16 17 18 19 20 21 22 23 24 25 26 27 28 29 30 31 32 33 34 35 36 37 38 39
000
FTUS41 KILN 182339
TAFCMH
TAF
KCMH 182339Z 1900/1924 17004KT P6SM SCT030 BKN100
      TEMPO 1900/1902 3SM -SHRA
     FM190200 VRB02KT P6SM SCT100
     FM191000 00000KT 3SM BR OVC005
     FM191300 19003KT P6SM BKN009
     FM191500 21004KT P6SM BKN022
     FM191800 22004KT P6SM BKN035=

USA.gov is the U.S. government's official web portal to all federal, state and local government web resources and services.